createdAt,value
2022-10-24T00:01:11.891Z,2.60
2022-10-24T00:03:38.676Z,2.67
2022-10-24T00:06:07.243Z,2.85
2022-10-24T00:08:35.641Z,3.42
2022-10-24T00:11:02.645Z,2.95
2022-10-24T00:13:29.526Z,2.67
2022-10-24T00:15:56.171Z,2.50
2022-10-24T00:18:22.785Z,2.47
2022-10-24T00:20:49.462Z,2.88
2022-10-24T00:23:16.186Z,2.60
2022-10-24T00:25:42.860Z,2.38
2022-10-24T00:28:09.474Z,4.40
2022-10-24T00:30:36.259Z,2.55
2022-10-24T00:33:02.949Z,2.70
2022-10-24T00:35:29.891Z,2.95
2022-10-24T00:37:56.610Z,2.78
2022-10-24T00:40:23.741Z,3.08
2022-10-24T00:42:50.500Z,2.53
2022-10-24T00:45:39.117Z,3.25
2022-10-24T00:48:23.434Z,3.40
2022-10-24T00:50:55.494Z,2.75
2022-10-24T00:53:23.759Z,2.65
2022-10-24T00:55:53.444Z,2.78
2022-10-24T00:58:22.552Z,2.67
2022-10-24T01:00:49.713Z,2.15
2022-10-24T01:03:16.768Z,2.72
2022-10-24T01:06:08.787Z,2.33
2022-10-24T01:08:47.302Z,2.08
2022-10-24T01:11:13.865Z,2.50
2022-10-24T01:13:54.488Z,2.45
2022-10-24T01:16:48.571Z,2.10
2022-10-24T01:19:49.308Z,2.33
2022-10-24T01:22:22.473Z,2.35
2022-10-24T01:24:55.212Z,1.85
2022-10-24T01:28:10.222Z,4.32
2022-10-24T01:30:43.888Z,2.03
2022-10-24T01:33:26.435Z,2.60
2022-10-24T01:35:58.156Z,2.15
2022-10-24T01:38:50.501Z,1.70
2022-10-24T01:41:21.092Z,1.98
2022-10-24T01:43:50.994Z,2.03
2022-10-24T01:46:27.924Z,2.30
2022-10-24T01:49:02.730Z,2.30
2022-10-24T01:51:32.157Z,2.38
2022-10-24T01:53:59.246Z,2.10
2022-10-24T01:56:26.535Z,1.98
2022-10-24T01:58:53.612Z,2.25
2022-10-24T02:01:24.245Z,1.70
2022-10-24T02:03:57.601Z,1.50
2022-10-24T02:06:34.955Z,1.63
2022-10-24T02:09:19.795Z,2.05
2022-10-24T02:11:48.281Z,1.70
2022-10-24T02:14:30.452Z,1.63
2022-10-24T02:16:57.096Z,2.38
2022-10-24T02:19:23.881Z,1.70
2022-10-24T02:21:58.666Z,1.67
2022-10-24T02:24:31.855Z,1.80
2022-10-24T02:27:04.689Z,1.80
2022-10-24T02:29:54.067Z,2.38
2022-10-24T02:32:39.972Z,2.40
2022-10-24T02:35:08.931Z,1.80
2022-10-24T02:37:44.290Z,2.75
2022-10-24T02:40:14.033Z,1.80
2022-10-24T02:42:42.674Z,1.50
2022-10-24T02:45:10.667Z,1.90
2022-10-24T02:47:40.168Z,1.58
2022-10-24T02:50:07.489Z,1.77
2022-10-24T02:52:36.027Z,1.67
2022-10-24T02:55:03.025Z,1.85
2022-10-24T02:57:29.826Z,1.52
2022-10-24T02:59:56.491Z,1.98
2022-10-24T03:02:23.576Z,1.98
2022-10-24T03:04:51.301Z,1.60
2022-10-24T03:07:17.986Z,1.73
2022-10-24T03:09:44.593Z,1.50
2022-10-24T03:12:15.034Z,1.80
2022-10-24T03:14:41.794Z,1.50
2022-10-24T03:17:08.445Z,1.77
2022-10-24T03:19:35.174Z,1.48
2022-10-24T03:22:01.815Z,1.40
2022-10-24T03:24:43.347Z,1.20
2022-10-24T03:27:11.559Z,1.55
2022-10-24T03:29:38.269Z,1.50
2022-10-24T03:32:05.579Z,1.80
2022-10-24T03:34:32.591Z,1.48
2022-10-24T03:36:59.275Z,1.52
2022-10-24T03:39:26.023Z,1.77
2022-10-24T03:41:52.618Z,1.67
2022-10-24T03:44:19.229Z,1.10
2022-10-24T03:46:45.933Z,1.58
2022-10-24T03:49:12.568Z,1.40
2022-10-24T03:51:39.214Z,1.63
2022-10-24T03:54:05.980Z,1.30
2022-10-24T03:56:32.653Z,1.30
2022-10-24T03:58:59.255Z,2.45
2022-10-24T04:01:25.978Z,1.38
2022-10-24T04:03:52.688Z,1.30
2022-10-24T04:06:19.385Z,1.20
2022-10-24T04:08:45.997Z,1.55
2022-10-24T04:11:12.724Z,1.58
2022-10-24T04:13:40.596Z,1.38
2022-10-24T04:16:07.870Z,1.45
2022-10-24T04:18:35.011Z,1.50
2022-10-24T04:21:01.941Z,1.23
2022-10-24T04:23:41.122Z,1.45
2022-10-24T04:26:09.201Z,1.58
2022-10-24T04:28:35.902Z,1.67
2022-10-24T04:31:02.685Z,1.77
2022-10-24T04:33:29.343Z,1.40
2022-10-24T04:35:55.968Z,1.40
2022-10-24T04:38:22.634Z,1.40
2022-10-24T04:40:51.457Z,1.17
2022-10-24T04:43:19.060Z,1.70
2022-10-24T04:45:46.374Z,1.88
2022-10-24T04:48:14.085Z,1.38
2022-10-24T04:50:42.466Z,1.40
2022-10-24T04:53:12.583Z,1.50
2022-10-24T04:55:39.205Z,1.50
2022-10-24T04:58:06.191Z,1.67
2022-10-24T05:00:32.932Z,1.40
2022-10-24T05:02:59.566Z,1.67
2022-10-24T05:05:26.249Z,1.60
2022-10-24T05:07:52.869Z,1.48
2022-10-24T05:10:19.650Z,2.03
2022-10-24T05:12:46.731Z,1.40
2022-10-24T05:15:14.965Z,1.80
2022-10-24T05:17:41.627Z,1.77
2022-10-24T05:20:09.081Z,1.40
2022-10-24T05:22:35.768Z,1.58
2022-10-24T05:25:02.529Z,2.10
2022-10-24T05:27:29.208Z,1.63
2022-10-24T05:29:56.210Z,1.60
2022-10-24T05:32:23.912Z,1.55
2022-10-24T05:34:50.686Z,1.83
2022-10-24T05:37:18.148Z,1.52
2022-10-24T05:39:44.845Z,1.60
2022-10-24T05:42:11.482Z,1.67
2022-10-24T05:44:38.900Z,1.75
2022-10-24T05:47:06.040Z,2.28
2022-10-24T05:49:33.055Z,2.22
2022-10-24T05:51:59.737Z,1.40
2022-10-24T05:54:33.258Z,2.28
2022-10-24T05:57:09.379Z,1.58
2022-10-24T05:59:36.015Z,1.35
2022-10-24T06:02:03.154Z,1.38
2022-10-24T06:04:29.924Z,2.00
2022-10-24T06:06:56.813Z,1.70
2022-10-24T06:09:23.479Z,1.65
2022-10-24T06:11:50.156Z,1.88
2022-10-24T06:14:17.222Z,1.40
2022-10-24T06:16:43.913Z,2.33
2022-10-24T06:19:10.715Z,1.40
2022-10-24T06:21:37.397Z,1.58
2022-10-24T06:24:04.306Z,1.67
2022-10-24T06:26:31.209Z,1.40
2022-10-24T06:28:57.890Z,1.30
2022-10-24T06:31:26.401Z,2.38
2022-10-24T06:33:55.495Z,1.48
2022-10-24T06:36:22.400Z,2.20
2022-10-24T06:38:49.577Z,2.00
2022-10-24T06:41:17.177Z,1.52
2022-10-24T06:43:44.033Z,1.70
2022-10-24T06:46:13.847Z,2.10
2022-10-24T06:48:40.834Z,2.13
2022-10-24T06:51:07.874Z,1.65
2022-10-24T06:53:34.983Z,1.55
2022-10-24T06:56:17.583Z,1.83
2022-10-24T06:58:44.504Z,1.73
2022-10-24T07:01:14.597Z,1.55
2022-10-24T07:03:42.206Z,2.10
2022-10-24T07:06:11.472Z,1.58
2022-10-24T07:08:38.170Z,1.83
2022-10-24T07:11:04.985Z,1.50
2022-10-24T07:13:31.658Z,1.63
2022-10-24T07:15:58.687Z,1.83
2022-10-24T07:18:25.429Z,1.40
2022-10-24T07:20:52.379Z,1.80
2022-10-24T07:23:19.060Z,1.55
2022-10-24T07:25:45.780Z,2.20
2022-10-24T07:28:12.880Z,1.30
2022-10-24T07:30:39.755Z,2.20
2022-10-24T07:33:06.514Z,1.45
2022-10-24T07:35:33.346Z,2.00
2022-10-24T07:37:59.989Z,1.50
2022-10-24T07:40:26.684Z,1.50
2022-10-24T07:42:53.301Z,1.60
2022-10-24T07:45:20.018Z,1.67
2022-10-24T07:47:47.120Z,1.95
2022-10-24T07:50:17.078Z,1.70
2022-10-24T07:52:43.729Z,3.17
2022-10-24T07:55:10.409Z,1.80
2022-10-24T07:57:37.268Z,1.80
2022-10-24T08:00:05.770Z,1.88
2022-10-24T08:02:39.209Z,1.92
2022-10-24T08:05:06.605Z,2.08
2022-10-24T08:07:36.262Z,2.38
2022-10-24T08:10:04.758Z,1.80
2022-10-24T08:12:31.512Z,2.25
2022-10-24T08:14:58.329Z,2.95
2022-10-24T08:17:25.001Z,2.03
2022-10-24T08:19:51.716Z,2.00
2022-10-24T08:22:18.344Z,2.08
2022-10-24T08:24:45.499Z,1.50
2022-10-24T08:27:12.681Z,2.78
2022-10-24T08:29:39.450Z,2.08
2022-10-24T08:32:06.893Z,2.25
2022-10-24T08:34:34.005Z,2.30
2022-10-24T08:37:00.749Z,1.95
2022-10-24T08:39:27.363Z,1.90
2022-10-24T08:42:01.612Z,2.28
2022-10-24T08:44:38.146Z,2.45
2022-10-24T08:47:27.961Z,2.08
2022-10-24T08:50:21.398Z,1.90
2022-10-24T08:52:53.080Z,1.77
2022-10-24T08:55:43.957Z,2.33
2022-10-24T08:58:38.337Z,2.20
2022-10-24T09:01:13.059Z,1.80
2022-10-24T09:04:01.846Z,2.63
2022-10-24T09:06:31.953Z,2.00
2022-10-24T09:09:15.685Z,1.67
2022-10-24T09:11:59.356Z,1.63
2022-10-24T09:14:35.765Z,1.85
2022-10-24T09:17:11.550Z,1.88
2022-10-24T09:19:39.079Z,2.33
2022-10-24T09:22:07.277Z,1.50
2022-10-24T09:24:47.132Z,1.88
2022-10-24T09:27:30.691Z,2.10
2022-10-24T09:29:58.909Z,1.80
2022-10-24T09:32:30.532Z,1.90
2022-10-24T09:37:55.765Z,3.30
2022-10-24T09:40:31.488Z,2.00
2022-10-24T09:43:18.673Z,2.20
2022-10-24T09:46:26.265Z,2.00
2022-10-24T09:49:17.453Z,1.65
2022-10-24T09:51:47.910Z,2.72
2022-10-24T09:54:20.687Z,2.25
2022-10-24T09:56:54.614Z,1.70
2022-10-24T09:59:36.549Z,1.70
2022-10-24T10:04:41.428Z,1.95
2022-10-24T10:07:19.832Z,1.98
2022-10-24T10:09:54.112Z,2.58
2022-10-24T10:12:34.679Z,3.05
2022-10-24T10:15:23.187Z,2.47
2022-10-24T10:18:28.406Z,3.46
2022-10-24T10:21:02.662Z,3.42
2022-10-24T10:23:33.664Z,2.40
2022-10-24T10:26:07.441Z,2.97
2022-10-24T10:28:41.407Z,2.05
2022-10-24T10:31:10.585Z,2.08
2022-10-24T10:33:45.623Z,2.13
2022-10-24T10:36:19.321Z,1.80
2022-10-24T10:38:58.252Z,2.40
2022-10-24T10:44:53.993Z,1.70
2022-10-24T10:47:35.017Z,1.90
2022-10-24T10:50:15.264Z,2.33
2022-10-24T10:52:48.823Z,1.92
2022-10-24T10:55:20.269Z,2.25
2022-10-24T10:58:08.721Z,2.00
2022-10-24T11:01:08.548Z,2.58
2022-10-24T11:03:50.407Z,2.00
2022-10-24T11:06:26.527Z,2.17
2022-10-24T11:09:27.395Z,2.20
2022-10-24T11:12:06.540Z,1.67
2022-10-24T11:14:48.907Z,2.13
2022-10-24T11:17:27.676Z,2.67
2022-10-24T11:20:16.092Z,1.95
2022-10-24T11:22:51.119Z,2.20
2022-10-24T11:25:36.836Z,2.42
2022-10-24T11:28:16.468Z,1.90
2022-10-24T11:30:52.223Z,2.63
2022-10-24T11:33:29.345Z,2.00
2022-10-24T11:36:32.907Z,2.63
2022-10-24T11:39:12.605Z,2.08
2022-10-24T11:42:03.015Z,2.03
2022-10-24T11:44:48.747Z,2.53
2022-10-24T11:47:24.517Z,2.58
2022-10-24T11:50:13.307Z,2.75
2022-10-24T11:52:44.584Z,2.25
2022-10-24T11:55:19.949Z,2.38
2022-10-24T11:57:52.175Z,1.90
2022-10-24T12:00:31.674Z,2.33
2022-10-24T12:03:10.128Z,3.15
2022-10-24T12:06:17.979Z,2.47
2022-10-24T12:09:12.622Z,1.80
2022-10-24T12:12:02.329Z,2.88
2022-10-24T12:14:31.801Z,2.10
2022-10-24T12:17:30.050Z,2.10
2022-10-24T12:19:57.388Z,1.75
2022-10-24T12:22:37.090Z,2.20
2022-10-24T12:25:18.857Z,1.98
2022-10-24T12:30:21.840Z,1.95
2022-10-24T12:32:50.065Z,2.08
2022-10-24T12:35:33.763Z,2.42
2022-10-24T12:38:02.046Z,2.17
2022-10-24T12:40:55.567Z,1.95
2022-10-24T12:43:31.887Z,2.00
2022-10-24T12:46:01.350Z,2.25
2022-10-24T12:48:32.255Z,1.70
2022-10-24T12:51:24.998Z,1.55
2022-10-24T12:54:02.251Z,2.28
2022-10-24T12:56:29.930Z,1.50
2022-10-24T12:59:16.059Z,2.30
2022-10-24T13:01:43.140Z,2.33
2022-10-24T13:04:38.766Z,2.03
2022-10-24T13:07:29.709Z,2.35
2022-10-24T13:10:39.058Z,1.98
2022-10-24T13:13:23.983Z,2.20
2022-10-24T13:16:03.182Z,2.50
2022-10-24T13:18:29.920Z,1.75
2022-10-24T13:21:18.713Z,1.63
2022-10-24T13:23:47.784Z,1.77
2022-10-24T13:26:48.153Z,1.27
2022-10-24T13:29:24.036Z,1.50
2022-10-24T13:32:18.641Z,1.50
2022-10-24T13:34:50.454Z,1.65
2022-10-24T13:37:36.364Z,1.83
2022-10-24T13:40:32.070Z,1.52
2022-10-24T13:43:07.442Z,1.27
2022-10-24T13:45:57.463Z,2.33
2022-10-24T13:48:27.953Z,2.40
2022-10-24T13:51:19.867Z,1.70
2022-10-24T13:56:29.927Z,2.38
2022-10-24T13:58:56.614Z,1.60
2022-10-24T14:01:27.448Z,2.05
2022-10-24T14:03:55.123Z,2.35
2022-10-24T14:06:33.498Z,2.40
2022-10-24T14:09:10.220Z,2.00
2022-10-24T14:11:42.793Z,2.00
2022-10-24T14:14:27.658Z,2.30
2022-10-24T14:17:23.017Z,2.95
2022-10-24T14:19:55.455Z,2.00
2022-10-24T14:22:27.723Z,1.85
2022-10-24T14:24:54.741Z,2.25
2022-10-24T14:27:21.514Z,1.83
2022-10-24T14:29:57.814Z,2.00
2022-10-24T14:32:26.225Z,2.90
2022-10-24T14:34:55.435Z,3.20
2022-10-24T14:37:32.774Z,4.20
2022-10-24T14:40:00.253Z,3.30
2022-10-24T14:42:27.796Z,2.20
2022-10-24T14:44:58.415Z,2.03
2022-10-24T14:47:28.744Z,2.37
2022-10-24T14:49:59.431Z,2.47
2022-10-24T14:52:37.970Z,3.08
2022-10-24T14:55:16.057Z,1.90
2022-10-24T14:57:48.833Z,1.80
2022-10-24T15:00:21.368Z,2.03
2022-10-24T15:02:49.717Z,1.95
2022-10-24T15:05:19.596Z,2.45
2022-10-24T15:08:09.182Z,1.83
2022-10-24T15:10:35.488Z,2.30
2022-10-24T15:13:11.776Z,1.80
2022-10-24T15:15:44.425Z,2.17
2022-10-24T15:18:41.064Z,2.03
2022-10-24T15:21:14.554Z,2.17
2022-10-24T15:23:58.730Z,1.73
2022-10-24T15:26:27.579Z,1.80
2022-10-24T15:29:07.621Z,2.40
2022-10-24T15:31:38.071Z,2.35
2022-10-24T15:34:07.438Z,1.63
2022-10-24T15:36:36.431Z,1.90
2022-10-24T15:39:06.693Z,1.75
2022-10-24T15:41:33.694Z,1.75
2022-10-24T15:44:01.151Z,1.77
2022-10-24T15:46:28.339Z,1.50
2022-10-24T15:48:54.960Z,1.83
2022-10-24T15:51:23.903Z,1.55
2022-10-24T15:53:52.560Z,1.52
2022-10-24T15:56:19.174Z,2.80
2022-10-24T15:58:45.775Z,1.77
2022-10-24T16:01:24.732Z,1.85
2022-10-24T16:03:51.618Z,1.60
2022-10-24T16:06:18.312Z,2.97
2022-10-24T16:08:44.943Z,2.33
2022-10-24T16:11:11.967Z,1.75
2022-10-24T16:13:39.113Z,1.80
2022-10-24T16:16:06.489Z,2.45
2022-10-24T16:18:33.100Z,7.72
2022-10-24T16:21:00.233Z,7.55
2022-10-24T16:23:27.855Z,3.30
2022-10-24T16:25:54.541Z,2.70
2022-10-24T16:28:23.872Z,2.90
2022-10-24T16:30:50.794Z,4.90
2022-10-24T16:33:20.001Z,5.25
2022-10-24T16:35:50.032Z,4.50
2022-10-24T16:38:16.870Z,4.97
2022-10-24T16:40:46.665Z,4.30
2022-10-24T16:43:15.972Z,5.63
2022-10-24T16:45:43.039Z,4.75
2022-10-24T16:48:10.442Z,3.85
2022-10-24T16:50:41.565Z,3.30
2022-10-24T16:53:08.907Z,3.67
2022-10-24T16:55:35.685Z,3.22
2022-10-24T16:58:02.400Z,3.85
2022-10-24T17:00:30.329Z,3.13
2022-10-24T17:02:57.987Z,2.60
2022-10-24T17:05:28.024Z,3.65
2022-10-24T17:07:55.275Z,3.13
2022-10-24T17:10:24.702Z,2.53
2022-10-24T17:12:52.155Z,2.28
2022-10-24T17:15:22.145Z,2.38
2022-10-24T17:17:49.983Z,2.63
2022-10-24T17:20:17.224Z,2.53
2022-10-24T17:22:44.509Z,15.43
2022-10-24T17:25:20.919Z,8.93
2022-10-24T17:27:48.586Z,3.70
2022-10-24T17:30:18.724Z,2.03
2022-10-24T17:32:45.863Z,2.67
2022-10-24T17:35:15.213Z,2.45
2022-10-24T17:38:00.592Z,3.05
2022-10-24T17:40:50.250Z,2.60
2022-10-24T17:43:25.358Z,2.53
2022-10-24T17:45:54.358Z,2.58
2022-10-24T17:48:21.789Z,2.92
2022-10-24T17:50:49.138Z,2.72
2022-10-24T17:53:17.884Z,2.83
2022-10-24T17:55:47.137Z,2.60
2022-10-24T17:58:15.465Z,2.22
2022-10-24T18:00:42.957Z,2.10
2022-10-24T18:03:09.781Z,3.38
2022-10-24T18:05:38.159Z,2.25
2022-10-24T18:08:07.967Z,2.50
2022-10-24T18:10:37.085Z,2.58
2022-10-24T18:13:03.794Z,2.83
2022-10-24T18:15:30.440Z,2.75
2022-10-24T18:17:57.097Z,2.45
2022-10-24T18:20:23.715Z,2.25
2022-10-24T18:22:50.820Z,2.97
2022-10-24T18:25:21.949Z,2.58
2022-10-24T18:27:50.694Z,2.70
2022-10-24T18:30:18.980Z,2.90
2022-10-24T18:32:46.226Z,3.78
2022-10-24T18:35:13.127Z,3.53
2022-10-24T18:37:39.915Z,3.38
2022-10-24T18:40:08.051Z,3.60
2022-10-24T18:42:40.713Z,2.92
2022-10-24T18:45:12.203Z,3.20
2022-10-24T18:47:39.419Z,2.92
2022-10-24T18:50:06.461Z,3.90
2022-10-24T18:52:33.108Z,3.65
2022-10-24T18:55:28.651Z,3.22
2022-10-24T18:57:55.578Z,4.25
2022-10-24T19:00:24.880Z,3.05
2022-10-24T19:03:29.661Z,2.42
2022-10-24T19:06:26.168Z,2.72
2022-10-24T19:08:53.009Z,2.78
2022-10-24T19:11:19.883Z,2.88
2022-10-24T19:13:46.683Z,3.50
2022-10-24T19:16:22.173Z,2.63
2022-10-24T19:18:57.069Z,3.00
2022-10-24T19:21:24.356Z,2.95
2022-10-24T19:23:52.417Z,3.55
2022-10-24T19:26:19.419Z,3.53
2022-10-24T19:28:46.146Z,3.58
2022-10-24T19:31:14.751Z,2.90
2022-10-24T19:33:41.440Z,2.35
2022-10-24T19:36:09.290Z,1.60
2022-10-24T19:38:36.096Z,1.60
2022-10-24T19:41:05.891Z,1.33
2022-10-24T19:43:32.679Z,1.00
2022-10-24T19:46:18.893Z,1.10
2022-10-24T19:48:51.127Z,1.27
2022-10-24T19:51:19.545Z,1.30
2022-10-24T19:53:46.821Z,1.20
2022-10-24T19:56:20.179Z,1.02
2022-10-24T19:58:49.506Z,1.15
2022-10-24T20:01:22.074Z,1.20
2022-10-24T20:03:50.181Z,1.00
2022-10-24T20:06:17.560Z,1.08
2022-10-24T20:08:47.311Z,1.00
2022-10-24T20:11:20.063Z,1.02
2022-10-24T20:13:47.445Z,0.85
2022-10-24T20:16:14.419Z,0.90
2022-10-24T20:18:43.015Z,0.80
2022-10-24T20:21:12.367Z,0.85
2022-10-24T20:23:42.831Z,1.05
2022-10-24T20:26:12.271Z,0.77
2022-10-24T20:28:43.010Z,0.80
2022-10-24T20:31:28.272Z,0.80
2022-10-24T20:34:00.077Z,0.70
2022-10-24T20:36:30.950Z,0.88
2022-10-24T20:39:01.187Z,0.90
2022-10-24T20:41:28.744Z,0.95
2022-10-24T20:43:55.531Z,1.33
2022-10-24T20:46:22.238Z,0.90
2022-10-24T20:48:48.933Z,0.90
2022-10-24T20:51:18.202Z,0.82
2022-10-24T20:53:45.444Z,0.70
2022-10-24T20:56:17.973Z,0.98
2022-10-24T20:58:45.508Z,1.25
2022-10-24T21:01:21.540Z,1.20
2022-10-24T21:03:49.105Z,0.93
2022-10-24T21:06:24.216Z,1.13
2022-10-24T21:08:52.267Z,1.05
2022-10-24T21:11:25.133Z,0.70
2022-10-24T21:14:12.186Z,0.90
2022-10-24T21:16:38.876Z,0.80
2022-10-24T21:19:05.514Z,0.85
2022-10-24T21:21:32.448Z,1.40
2022-10-24T21:24:04.269Z,1.35
2022-10-24T21:26:39.732Z,3.13
2022-10-24T21:29:14.613Z,1.20
2022-10-24T21:31:54.404Z,1.23
2022-10-24T21:34:21.000Z,1.90
2022-10-24T21:36:47.971Z,1.20
2022-10-24T21:39:16.012Z,1.63
2022-10-24T21:41:43.572Z,0.93
2022-10-24T21:44:10.635Z,1.15
2022-10-24T21:46:37.301Z,1.45
2022-10-24T21:49:04.108Z,1.20
2022-10-24T21:51:34.365Z,2.00
2022-10-24T21:54:02.161Z,1.50
2022-10-24T21:56:31.647Z,1.70
2022-10-24T22:01:37.815Z,1.67
2022-10-24T22:04:05.726Z,2.85
2022-10-24T22:06:34.015Z,1.48
2022-10-24T22:09:01.197Z,1.67
2022-10-24T22:11:29.943Z,1.65
2022-10-24T22:13:57.431Z,2.15
2022-10-24T22:16:26.132Z,1.90
2022-10-24T22:18:53.359Z,1.88
2022-10-24T22:21:27.288Z,1.80
2022-10-24T22:23:56.533Z,1.65
2022-10-24T22:26:24.265Z,1.90
2022-10-24T22:28:51.356Z,1.77
2022-10-24T22:31:19.352Z,1.73
2022-10-24T22:33:46.110Z,1.90
2022-10-24T22:36:31.196Z,1.88
2022-10-24T22:38:58.072Z,2.03
2022-10-24T22:41:25.765Z,2.78
2022-10-24T22:43:52.752Z,2.95
2022-10-24T22:46:28.107Z,2.80
2022-10-24T22:49:01.621Z,2.10
2022-10-24T22:51:29.476Z,2.42
2022-10-24T22:53:56.617Z,2.03
2022-10-24T22:56:33.166Z,1.90
2022-10-24T22:59:01.352Z,2.15
2022-10-24T23:01:34.191Z,3.88
2022-10-24T23:04:05.627Z,2.25
2022-10-24T23:06:53.763Z,2.08
2022-10-24T23:09:20.355Z,4.35
2022-10-24T23:11:47.178Z,3.28
2022-10-24T23:14:14.073Z,2.67
2022-10-24T23:16:57.520Z,1.90
2022-10-24T23:19:26.736Z,2.08
2022-10-24T23:22:03.087Z,2.35
2022-10-24T23:24:30.085Z,1.98
2022-10-24T23:27:05.774Z,2.40
2022-10-24T23:29:34.664Z,2.08
2022-10-24T23:32:02.754Z,2.30
2022-10-24T23:34:30.001Z,2.08
2022-10-24T23:37:03.096Z,2.20
2022-10-24T23:39:33.002Z,2.35
2022-10-24T23:42:01.235Z,1.92
2022-10-24T23:44:28.121Z,2.20
2022-10-24T23:47:09.708Z,2.45
2022-10-24T23:49:44.424Z,2.33
2022-10-24T23:52:20.226Z,2.10
2022-10-24T23:54:47.161Z,2.80
2022-10-24T23:57:16.509Z,1.65
2022-10-24T23:59:43.364Z,2.08
